createdAt,value
2023-04-26T04:16:48.012Z,7.87
2023-04-26T04:20:51.330Z,7.87
2023-04-26T04:24:54.567Z,7.32
2023-04-26T04:29:00.734Z,7.39
2023-04-26T04:33:05.721Z,7.45
2023-04-26T04:37:14.313Z,7.46
2023-04-26T04:41:17.346Z,7.51
2023-04-26T04:45:20.723Z,7.60
2023-04-26T04:49:25.041Z,7.63
2023-04-26T04:53:28.620Z,7.74
2023-04-26T04:57:34.401Z,7.82
2023-04-26T05:01:38.826Z,7.93
2023-04-26T05:05:41.866Z,8.03
2023-04-26T05:09:45.843Z,8.14
2023-04-26T05:13:52.289Z,8.76
2023-04-26T05:17:56.766Z,8.91
2023-04-26T05:21:59.798Z,8.98
2023-04-26T05:26:06.405Z,9.19
2023-04-26T05:30:12.710Z,9.19
2023-04-26T05:34:16.607Z,9.18
2023-04-26T05:38:22.337Z,9.44
2023-04-26T05:42:25.672Z,9.28
2023-04-26T05:46:28.488Z,9.37
2023-04-26T05:50:31.904Z,9.32
2023-04-26T05:54:35.135Z,9.41
2023-04-26T05:58:38.389Z,9.65
2023-04-26T06:02:41.641Z,9.68
2023-04-26T06:06:51.577Z,9.66
2023-04-26T06:10:57.242Z,9.84
2023-04-26T06:15:00.722Z,9.68
2023-04-26T06:19:03.848Z,9.86
2023-04-26T06:23:07.751Z,10.64
2023-04-26T06:27:10.582Z,10.87
2023-04-26T06:31:15.943Z,10.81
2023-04-26T06:35:19.133Z,10.78
2023-04-26T06:39:22.471Z,11.19
2023-04-26T06:43:25.525Z,11.30
2023-04-26T06:47:29.984Z,11.31
2023-04-26T06:51:32.942Z,11.05
2023-04-26T06:55:36.212Z,11.56
2023-04-26T06:59:39.203Z,11.76
2023-04-26T07:03:43.066Z,12.11
2023-04-26T07:07:47.907Z,11.82
2023-04-26T07:11:51.095Z,11.72
2023-04-26T07:15:54.062Z,11.82
2023-04-26T07:20:02.813Z,11.91
2023-04-26T07:24:09.302Z,12.30
2023-04-26T07:28:12.845Z,12.23
2023-04-26T07:32:17.622Z,12.45
2023-04-26T07:36:22.440Z,12.52
2023-04-26T07:40:26.595Z,12.65
2023-04-26T07:44:29.585Z,12.90
2023-04-26T07:48:32.483Z,13.05
2023-04-26T07:52:35.718Z,13.18
2023-04-26T07:56:38.627Z,12.74
2023-04-26T08:00:42.143Z,12.94
2023-04-26T08:04:54.565Z,13.26
2023-04-26T08:09:19.242Z,13.50
2023-04-26T08:13:22.779Z,13.65
2023-04-26T08:17:26.234Z,13.52
2023-04-26T08:21:30.249Z,13.40
2023-04-26T08:25:35.515Z,14.04
2023-04-26T08:29:39.763Z,14.01
2023-04-26T08:33:43.138Z,14.23
2023-04-26T08:37:46.301Z,14.42
2023-04-26T08:41:55.639Z,14.66
2023-04-26T08:46:02.462Z,14.45
2023-04-26T08:50:08.608Z,14.46
2023-04-26T08:54:12.869Z,14.40
2023-04-26T08:58:19.700Z,14.93
2023-04-26T09:02:25.913Z,14.69
2023-04-26T09:06:29.243Z,14.16
2023-04-26T09:10:34.219Z,13.68
2023-04-26T09:14:40.260Z,14.42
2023-04-26T09:18:57.974Z,15.25
2023-04-26T09:23:07.124Z,14.73
2023-04-26T09:27:13.165Z,14.53
2023-04-26T09:31:50.136Z,14.29
2023-04-26T09:35:54.631Z,14.76
2023-04-26T09:39:57.792Z,15.42
2023-04-26T09:44:09.159Z,15.02
2023-04-26T09:48:17.852Z,16.29
2023-04-26T09:52:44.192Z,15.79
2023-04-26T09:57:02.004Z,15.73
2023-04-26T10:01:05.801Z,16.31
2023-04-26T10:05:13.053Z,16.65
2023-04-26T10:09:20.050Z,16.52
2023-04-26T10:13:32.683Z,15.33
2023-04-26T10:17:37.076Z,16.06
2023-04-26T10:21:45.347Z,15.46
2023-04-26T10:25:52.588Z,16.67
2023-04-26T10:30:25.227Z,16.50
2023-04-26T10:34:46.077Z,17.07
2023-04-26T10:39:29.071Z,17.58
2023-04-26T10:44:00.270Z,17.40
2023-04-26T10:48:33.128Z,18.21
2023-04-26T10:53:04.968Z,18.41
2023-04-26T10:57:07.908Z,18.31
2023-04-26T11:01:22.772Z,16.97
2023-04-26T11:05:38.757Z,18.51
2023-04-26T11:09:49.371Z,18.29
2023-04-26T11:13:52.444Z,18.46
2023-04-26T11:17:56.331Z,18.49
2023-04-26T11:22:01.392Z,18.93
2023-04-26T11:26:06.611Z,17.42
2023-04-26T11:30:10.018Z,18.47
2023-04-26T11:34:16.754Z,18.41
2023-04-26T11:38:30.483Z,18.68
2023-04-26T11:42:48.198Z,18.98
2023-04-26T11:46:52.336Z,18.83
2023-04-26T11:50:59.362Z,19.32
2023-04-26T11:55:10.502Z,17.88
2023-04-26T11:59:23.726Z,17.33
2023-04-26T12:03:38.227Z,17.69
2023-04-26T12:07:47.265Z,19.12
2023-04-26T12:12:26.150Z,19.17
2023-04-26T12:16:47.171Z,19.30
2023-04-26T12:20:56.242Z,18.32
2023-04-26T12:25:06.635Z,18.25
2023-04-26T12:29:09.674Z,17.32
2023-04-26T12:33:17.972Z,17.18
2023-04-26T12:37:20.909Z,16.77
2023-04-26T12:41:24.780Z,18.36
2023-04-26T12:45:27.957Z,19.24
2023-04-26T12:49:31.244Z,19.73
2023-04-26T12:53:34.102Z,19.93
2023-04-26T12:57:38.208Z,19.95
2023-04-26T13:01:41.376Z,20.02
2023-04-26T13:05:44.598Z,20.56
2023-04-26T13:09:47.451Z,21.35
2023-04-26T13:13:50.490Z,18.79
2023-04-26T13:17:54.295Z,20.36
2023-04-26T13:21:57.467Z,20.90
2023-04-26T13:26:00.202Z,19.59
2023-04-26T13:30:03.699Z,18.53
2023-04-26T13:34:07.073Z,17.11
2023-04-26T13:38:10.110Z,16.66
2023-04-26T13:42:14.369Z,16.37
2023-04-26T13:46:18.043Z,16.13
2023-04-26T13:50:20.741Z,15.94
2023-04-26T13:54:25.979Z,14.98
2023-04-26T13:58:28.645Z,14.55
2023-04-26T14:02:31.866Z,14.83
2023-04-26T14:06:35.191Z,15.19
2023-04-26T14:10:37.828Z,15.22
2023-04-26T14:14:40.998Z,15.49
2023-04-26T14:18:45.417Z,15.11
2023-04-26T14:22:50.630Z,14.46
2023-04-26T14:26:53.918Z,14.37
2023-04-26T14:30:56.981Z,14.10
2023-04-26T14:34:59.671Z,13.91
2023-04-26T14:39:02.742Z,13.84
2023-04-26T14:43:05.554Z,14.69
2023-04-26T14:47:08.560Z,15.90
2023-04-26T14:51:11.463Z,15.89
2023-04-26T14:55:24.437Z,16.77
2023-04-26T14:59:27.098Z,17.69
2023-04-26T15:03:30.408Z,16.53
2023-04-26T15:07:33.285Z,17.52
2023-04-26T15:11:36.619Z,16.36
2023-04-26T15:15:39.550Z,15.27
2023-04-26T15:19:42.540Z,14.99
2023-04-26T15:23:45.360Z,15.55
2023-04-26T15:27:50.545Z,16.90
2023-04-26T15:31:53.408Z,16.98
2023-04-26T15:35:57.036Z,16.83
2023-04-26T15:39:59.737Z,15.88
2023-04-26T15:44:02.741Z,14.85
2023-04-26T15:48:06.142Z,14.20
2023-04-26T15:52:09.396Z,13.65
2023-04-26T15:56:16.355Z,13.28
2023-04-26T16:00:20.934Z,13.18
2023-04-26T16:04:24.135Z,13.12
